sensor_id;sensor_type;location;lat;lon;timestamp;P1;durP1;ratioP1;P2;durP2;ratioP2
70558;SDS011;58108;48.094;11.838;2023-02-03T00:00:44;4.72;;;1.23;;
70558;SDS011;58108;48.094;11.838;2023-02-03T00:03:09;3.47;;;0.97;;
70558;SDS011;58108;48.094;11.838;2023-02-03T00:05:34;2.53;;;0.67;;
70558;SDS011;58108;48.094;11.838;2023-02-03T00:08:01;4.78;;;0.50;;
70558;SDS011;58108;48.094;11.838;2023-02-03T00:10:26;3.37;;;0.77;;
70558;SDS011;58108;48.094;11.838;2023-02-03T00:12:51;3.10;;;0.77;;
70558;SDS011;58108;48.094;11.838;2023-02-03T00:15:17;2.90;;;0.57;;
70558;SDS011;58108;48.094;11.838;2023-02-03T00:17:43;2.77;;;0.67;;
70558;SDS011;58108;48.094;11.838;2023-02-03T00:20:08;3.83;;;0.67;;
70558;SDS011;58108;48.094;11.838;2023-02-03T00:22:34;3.50;;;0.88;;
70558;SDS011;58108;48.094;11.838;2023-02-03T00:24:59;4.10;;;0.85;;
70558;SDS011;58108;48.094;11.838;2023-02-03T00:27:24;3.23;;;0.97;;
70558;SDS011;58108;48.094;11.838;2023-02-03T00:29:49;4.15;;;0.65;;
70558;SDS011;58108;48.094;11.838;2023-02-03T00:32:15;5.67;;;0.80;;
70558;SDS011;58108;48.094;11.838;2023-02-03T00:34:40;4.90;;;1.00;;
70558;SDS011;58108;48.094;11.838;2023-02-03T00:37:05;2.63;;;0.67;;
70558;SDS011;58108;48.094;11.838;2023-02-03T00:39:30;3.07;;;0.47;;
70558;SDS011;58108;48.094;11.838;2023-02-03T00:41:55;2.33;;;0.57;;
70558;SDS011;58108;48.094;11.838;2023-02-03T00:44:21;3.90;;;0.60;;
70558;SDS011;58108;48.094;11.838;2023-02-03T00:46:46;2.73;;;0.40;;
70558;SDS011;58108;48.094;11.838;2023-02-03T00:49:11;2.53;;;0.53;;
70558;SDS011;58108;48.094;11.838;2023-02-03T00:51:36;4.30;;;0.90;;
70558;SDS011;58108;48.094;11.838;2023-02-03T00:54:01;4.33;;;0.57;;
70558;SDS011;58108;48.094;11.838;2023-02-03T00:56:26;3.50;;;0.50;;
70558;SDS011;58108;48.094;11.838;2023-02-03T00:58:52;5.53;;;0.60;;
70558;SDS011;58108;48.094;11.838;2023-02-03T01:01:17;3.30;;;0.63;;
70558;SDS011;58108;48.094;11.838;2023-02-03T01:03:42;5.10;;;0.87;;
70558;SDS011;58108;48.094;11.838;2023-02-03T01:06:14;3.37;;;0.87;;
70558;SDS011;58108;48.094;11.838;2023-02-03T01:08:40;2.37;;;0.67;;
70558;SDS011;58108;48.094;11.838;2023-02-03T01:11:10;2.50;;;0.40;;
70558;SDS011;58108;48.094;11.838;2023-02-03T01:13:35;3.27;;;0.63;;
70558;SDS011;58108;48.094;11.838;2023-02-03T01:16:01;2.05;;;0.43;;
70558;SDS011;58108;48.094;11.838;2023-02-03T01:18:26;1.40;;;0.30;;
70558;SDS011;58108;48.094;11.838;2023-02-03T01:20:51;3.00;;;0.40;;
70558;SDS011;58108;48.094;11.838;2023-02-03T01:23:16;2.13;;;0.60;;
70558;SDS011;58108;48.094;11.838;2023-02-03T01:25:41;3.23;;;0.93;;
70558;SDS011;58108;48.094;11.838;2023-02-03T01:28:06;2.60;;;0.40;;
70558;SDS011;58108;48.094;11.838;2023-02-03T01:30:32;2.22;;;0.60;;
70558;SDS011;58108;48.094;11.838;2023-02-03T01:32:58;3.97;;;0.60;;
70558;SDS011;58108;48.094;11.838;2023-02-03T01:35:23;3.60;;;0.47;;
70558;SDS011;58108;48.094;11.838;2023-02-03T01:37:48;4.90;;;0.60;;
70558;SDS011;58108;48.094;11.838;2023-02-03T01:40:13;3.00;;;0.50;;
70558;SDS011;58108;48.094;11.838;2023-02-03T01:42:38;1.70;;;0.40;;
70558;SDS011;58108;48.094;11.838;2023-02-03T01:45:04;2.03;;;0.40;;
70558;SDS011;58108;48.094;11.838;2023-02-03T01:47:33;6.10;;;0.60;;
70558;SDS011;58108;48.094;11.838;2023-02-03T01:50:16;2.40;;;0.60;;
70558;SDS011;58108;48.094;11.838;2023-02-03T01:52:42;3.88;;;0.47;;
70558;SDS011;58108;48.094;11.838;2023-02-03T01:55:10;3.03;;;0.67;;
70558;SDS011;58108;48.094;11.838;2023-02-03T01:57:37;2.67;;;0.68;;
70558;SDS011;58108;48.094;11.838;2023-02-03T02:00:05;1.50;;;0.20;;
70558;SDS011;58108;48.094;11.838;2023-02-03T02:02:30;3.50;;;0.60;;
70558;SDS011;58108;48.094;11.838;2023-02-03T02:05:02;1.60;;;0.30;;
70558;SDS011;58108;48.094;11.838;2023-02-03T02:07:27;3.35;;;0.40;;
70558;SDS011;58108;48.094;11.838;2023-02-03T02:09:53;2.53;;;0.40;;
70558;SDS011;58108;48.094;11.838;2023-02-03T02:12:19;3.03;;;0.20;;
70558;SDS011;58108;48.094;11.838;2023-02-03T02:14:44;2.30;;;0.57;;
70558;SDS011;58108;48.094;11.838;2023-02-03T02:17:11;3.03;;;0.57;;
70558;SDS011;58108;48.094;11.838;2023-02-03T02:35:17;2.53;;;0.40;;
70558;SDS011;58108;48.094;11.838;2023-02-03T02:37:58;3.85;;;0.35;;
70558;SDS011;58108;48.094;11.838;2023-02-03T02:45:48;3.03;;;0.43;;
70558;SDS011;58108;48.094;11.838;2023-02-03T02:48:37;2.28;;;0.52;;
70558;SDS011;58108;48.094;11.838;2023-02-03T02:50:59;1.20;;;0.22;;
70558;SDS011;58108;48.094;11.838;2023-02-03T02:53:27;1.98;;;0.47;;
70558;SDS011;58108;48.094;11.838;2023-02-03T02:55:53;1.40;;;0.20;;
70558;SDS011;58108;48.094;11.838;2023-02-03T02:58:21;2.50;;;0.57;;
70558;SDS011;58108;48.094;11.838;2023-02-03T03:00:47;1.67;;;0.28;;
70558;SDS011;58108;48.094;11.838;2023-02-03T03:03:13;1.60;;;0.30;;
70558;SDS011;58108;48.094;11.838;2023-02-03T03:05:39;2.53;;;0.70;;
70558;SDS011;58108;48.094;11.838;2023-02-03T03:08:06;2.08;;;0.45;;
70558;SDS011;58108;48.094;11.838;2023-02-03T03:10:33;2.70;;;0.20;;
70558;SDS011;58108;48.094;11.838;2023-02-03T03:13:00;2.80;;;0.50;;
70558;SDS011;58108;48.094;11.838;2023-02-03T03:15:28;2.58;;;0.40;;
70558;SDS011;58108;48.094;11.838;2023-02-03T03:18:00;2.25;;;0.38;;
70558;SDS011;58108;48.094;11.838;2023-02-03T03:20:28;3.42;;;0.43;;
70558;SDS011;58108;48.094;11.838;2023-02-03T03:22:55;1.60;;;0.20;;
70558;SDS011;58108;48.094;11.838;2023-02-03T03:25:24;2.72;;;0.45;;
70558;SDS011;58108;48.094;11.838;2023-02-03T03:27:53;2.60;;;0.30;;
70558;SDS011;58108;48.094;11.838;2023-02-03T03:30:42;1.90;;;0.30;;
70558;SDS011;58108;48.094;11.838;2023-02-03T03:33:06;2.80;;;0.73;;
70558;SDS011;58108;48.094;11.838;2023-02-03T03:35:35;2.53;;;0.30;;
70558;SDS011;58108;48.094;11.838;2023-02-03T03:38:05;3.85;;;0.52;;
70558;SDS011;58108;48.094;11.838;2023-02-03T03:40:38;2.92;;;0.38;;
70558;SDS011;58108;48.094;11.838;2023-02-03T03:43:10;2.88;;;0.40;;
70558;SDS011;58108;48.094;11.838;2023-02-03T03:45:41;1.30;;;0.10;;
70558;SDS011;58108;48.094;11.838;2023-02-03T03:48:13;2.33;;;0.40;;
70558;SDS011;58108;48.094;11.838;2023-02-03T03:50:41;5.28;;;0.43;;
70558;SDS011;58108;48.094;11.838;2023-02-03T03:53:07;2.60;;;0.30;;
70558;SDS011;58108;48.094;11.838;2023-02-03T03:55:34;2.42;;;0.10;;
70558;SDS011;58108;48.094;11.838;2023-02-03T03:58:07;1.85;;;0.20;;
70558;SDS011;58108;48.094;11.838;2023-02-03T04:00:34;3.23;;;0.30;;
70558;SDS011;58108;48.094;11.838;2023-02-03T04:03:10;1.73;;;0.20;;
70558;SDS011;58108;48.094;11.838;2023-02-03T04:05:35;2.60;;;0.30;;
70558;SDS011;58108;48.094;11.838;2023-02-03T04:08:02;1.80;;;0.20;;
70558;SDS011;58108;48.094;11.838;2023-02-03T04:12:53;2.85;;;0.40;;
70558;SDS011;58108;48.094;11.838;2023-02-03T04:15:18;3.77;;;0.33;;
70558;SDS011;58108;48.094;11.838;2023-02-03T04:17:43;2.97;;;0.30;;
70558;SDS011;58108;48.094;11.838;2023-02-03T04:20:08;1.87;;;0.40;;
70558;SDS011;58108;48.094;11.838;2023-02-03T04:22:34;0.90;;;0.10;;
70558;SDS011;58108;48.094;11.838;2023-02-03T04:24:59;3.23;;;0.30;;
70558;SDS011;58108;48.094;11.838;2023-02-03T04:27:24;1.23;;;0.13;;
70558;SDS011;58108;48.094;11.838;2023-02-03T04:29:50;2.00;;;0.30;;
70558;SDS011;58108;48.094;11.838;2023-02-03T04:32:15;2.83;;;0.40;;
70558;SDS011;58108;48.094;11.838;2023-02-03T04:34:40;1.70;;;0.30;;
70558;SDS011;58108;48.094;11.838;2023-02-03T04:37:05;2.33;;;0.17;;
70558;SDS011;58108;48.094;11.838;2023-02-03T04:39:30;1.10;;;0.10;;
70558;SDS011;58108;48.094;11.838;2023-02-03T04:41:55;2.67;;;0.30;;
70558;SDS011;58108;48.094;11.838;2023-02-03T04:44:21;1.90;;;0.30;;
70558;SDS011;58108;48.094;11.838;2023-02-03T04:46:46;1.93;;;0.20;;
70558;SDS011;58108;48.094;11.838;2023-02-03T04:49:11;3.67;;;0.20;;
70558;SDS011;58108;48.094;11.838;2023-02-03T04:51:36;2.37;;;0.20;;
70558;SDS011;58108;48.094;11.838;2023-02-03T04:54:01;3.33;;;0.20;;
70558;SDS011;58108;48.094;11.838;2023-02-03T04:56:27;1.33;;;0.20;;
70558;SDS011;58108;48.094;11.838;2023-02-03T04:58:52;1.92;;;0.30;;
70558;SDS011;58108;48.094;11.838;2023-02-03T05:01:17;3.13;;;0.60;;
70558;SDS011;58108;48.094;11.838;2023-02-03T05:03:42;2.50;;;0.20;;
70558;SDS011;58108;48.094;11.838;2023-02-03T05:06:07;1.38;;;0.10;;
70558;SDS011;58108;48.094;11.838;2023-02-03T05:08:32;2.93;;;0.10;;
70558;SDS011;58108;48.094;11.838;2023-02-03T05:10:57;1.20;;;0.10;;
70558;SDS011;58108;48.094;11.838;2023-02-03T05:13:23;2.20;;;0.30;;
70558;SDS011;58108;48.094;11.838;2023-02-03T05:15:48;2.10;;;0.30;;
70558;SDS011;58108;48.094;11.838;2023-02-03T05:18:13;3.63;;;0.10;;
70558;SDS011;58108;48.094;11.838;2023-02-03T05:20:38;1.67;;;0.20;;
70558;SDS011;58108;48.094;11.838;2023-02-03T05:23:03;3.30;;;0.30;;
70558;SDS011;58108;48.094;11.838;2023-02-03T05:25:29;1.87;;;0.20;;
70558;SDS011;58108;48.094;11.838;2023-02-03T05:27:54;1.30;;;0.10;;
70558;SDS011;58108;48.094;11.838;2023-02-03T05:30:19;2.83;;;0.20;;
70558;SDS011;58108;48.094;11.838;2023-02-03T05:32:45;4.83;;;0.40;;
70558;SDS011;58108;48.094;11.838;2023-02-03T05:35:10;1.60;;;0.30;;
70558;SDS011;58108;48.094;11.838;2023-02-03T05:37:35;3.43;;;0.20;;
70558;SDS011;58108;48.094;11.838;2023-02-03T05:40:00;1.93;;;0.30;;
70558;SDS011;58108;48.094;11.838;2023-02-03T05:42:47;2.33;;;0.30;;
70558;SDS011;58108;48.094;11.838;2023-02-03T05:45:12;2.72;;;0.22;;
70558;SDS011;58108;48.094;11.838;2023-02-03T05:47:38;2.03;;;0.30;;
70558;SDS011;58108;48.094;11.838;2023-02-03T05:50:03;2.57;;;0.30;;
70558;SDS011;58108;48.094;11.838;2023-02-03T05:52:28;2.43;;;0.43;;
70558;SDS011;58108;48.094;11.838;2023-02-03T05:54:53;3.10;;;0.40;;
70558;SDS011;58108;48.094;11.838;2023-02-03T05:57:19;2.20;;;0.20;;
70558;SDS011;58108;48.094;11.838;2023-02-03T05:59:44;2.53;;;0.37;;
70558;SDS011;58108;48.094;11.838;2023-02-03T06:02:09;2.30;;;0.20;;
70558;SDS011;58108;48.094;11.838;2023-02-03T06:04:34;1.27;;;0.10;;
70558;SDS011;58108;48.094;11.838;2023-02-03T06:06:59;2.37;;;0.40;;
70558;SDS011;58108;48.094;11.838;2023-02-03T06:09:24;1.97;;;0.30;;
70558;SDS011;58108;48.094;11.838;2023-02-03T06:11:50;3.60;;;0.50;;
70558;SDS011;58108;48.094;11.838;2023-02-03T06:14:15;1.43;;;0.10;;
70558;SDS011;58108;48.094;11.838;2023-02-03T06:16:40;2.20;;;0.20;;
70558;SDS011;58108;48.094;11.838;2023-02-03T06:19:05;2.70;;;0.40;;
70558;SDS011;58108;48.094;11.838;2023-02-03T06:21:30;2.42;;;0.20;;
70558;SDS011;58108;48.094;11.838;2023-02-03T06:23:55;1.60;;;0.27;;
70558;SDS011;58108;48.094;11.838;2023-02-03T06:26:21;2.40;;;0.30;;
70558;SDS011;58108;48.094;11.838;2023-02-03T06:28:46;1.53;;;0.20;;
70558;SDS011;58108;48.094;11.838;2023-02-03T06:31:11;1.97;;;0.27;;
70558;SDS011;58108;48.094;11.838;2023-02-03T06:33:36;2.37;;;0.30;;
70558;SDS011;58108;48.094;11.838;2023-02-03T06:36:02;2.17;;;0.30;;
70558;SDS011;58108;48.094;11.838;2023-02-03T06:38:27;2.17;;;0.20;;
70558;SDS011;58108;48.094;11.838;2023-02-03T06:40:52;2.47;;;0.30;;
70558;SDS011;58108;48.094;11.838;2023-02-03T06:43:17;3.60;;;0.33;;
70558;SDS011;58108;48.094;11.838;2023-02-03T06:45:46;2.30;;;0.20;;
70558;SDS011;58108;48.094;11.838;2023-02-03T06:48:11;2.03;;;0.20;;
70558;SDS011;58108;48.094;11.838;2023-02-03T06:50:36;1.15;;;0.17;;
70558;SDS011;58108;48.094;11.838;2023-02-03T06:53:02;2.87;;;0.40;;
70558;SDS011;58108;48.094;11.838;2023-02-03T06:55:27;2.73;;;0.47;;
70558;SDS011;58108;48.094;11.838;2023-02-03T06:57:52;3.17;;;0.40;;
70558;SDS011;58108;48.094;11.838;2023-02-03T07:00:17;2.10;;;0.30;;
70558;SDS011;58108;48.094;11.838;2023-02-03T07:02:43;1.63;;;0.30;;
70558;SDS011;58108;48.094;11.838;2023-02-03T07:05:08;2.43;;;0.20;;
70558;SDS011;58108;48.094;11.838;2023-02-03T07:07:33;1.73;;;0.20;;
70558;SDS011;58108;48.094;11.838;2023-02-03T07:09:59;2.23;;;0.40;;
70558;SDS011;58108;48.094;11.838;2023-02-03T07:12:24;5.38;;;0.38;;
70558;SDS011;58108;48.094;11.838;2023-02-03T07:14:50;2.37;;;0.20;;
70558;SDS011;58108;48.094;11.838;2023-02-03T07:17:15;4.77;;;0.60;;
70558;SDS011;58108;48.094;11.838;2023-02-03T07:19:40;1.93;;;0.40;;
70558;SDS011;58108;48.094;11.838;2023-02-03T07:22:05;1.57;;;0.20;;
70558;SDS011;58108;48.094;11.838;2023-02-03T07:24:30;2.90;;;0.40;;
70558;SDS011;58108;48.094;11.838;2023-02-03T07:26:55;2.53;;;0.37;;
70558;SDS011;58108;48.094;11.838;2023-02-03T07:29:21;3.30;;;0.40;;
70558;SDS011;58108;48.094;11.838;2023-02-03T07:31:46;2.13;;;0.47;;
70558;SDS011;58108;48.094;11.838;2023-02-03T07:34:11;2.10;;;0.20;;
70558;SDS011;58108;48.094;11.838;2023-02-03T07:36:36;3.63;;;0.43;;
70558;SDS011;58108;48.094;11.838;2023-02-03T07:39:02;2.33;;;0.30;;
70558;SDS011;58108;48.094;11.838;2023-02-03T07:41:27;2.15;;;0.20;;
70558;SDS011;58108;48.094;11.838;2023-02-03T07:43:52;2.13;;;0.43;;
70558;SDS011;58108;48.094;11.838;2023-02-03T07:46:17;2.07;;;0.30;;
70558;SDS011;58108;48.094;11.838;2023-02-03T07:48:43;1.93;;;0.30;;
70558;SDS011;58108;48.094;11.838;2023-02-03T07:51:08;2.58;;;0.52;;
70558;SDS011;58108;48.094;11.838;2023-02-03T07:53:33;3.57;;;0.50;;
70558;SDS011;58108;48.094;11.838;2023-02-03T07:55:59;2.05;;;0.20;;
70558;SDS011;58108;48.094;11.838;2023-02-03T07:58:25;3.27;;;0.40;;
70558;SDS011;58108;48.094;11.838;2023-02-03T08:00:50;2.03;;;0.20;;
70558;SDS011;58108;48.094;11.838;2023-02-03T08:03:15;2.33;;;0.30;;
70558;SDS011;58108;48.094;11.838;2023-02-03T08:05:40;2.30;;;0.30;;
70558;SDS011;58108;48.094;11.838;2023-02-03T08:08:05;3.50;;;0.53;;
70558;SDS011;58108;48.094;11.838;2023-02-03T08:10:31;3.23;;;0.20;;
70558;SDS011;58108;48.094;11.838;2023-02-03T08:12:56;4.10;;;0.67;;
70558;SDS011;58108;48.094;11.838;2023-02-03T08:15:21;1.70;;;0.20;;
70558;SDS011;58108;48.094;11.838;2023-02-03T08:17:49;1.70;;;0.10;;
70558;SDS011;58108;48.094;11.838;2023-02-03T08:20:14;2.03;;;0.40;;
70558;SDS011;58108;48.094;11.838;2023-02-03T08:22:40;1.80;;;0.20;;
70558;SDS011;58108;48.094;11.838;2023-02-03T08:25:05;1.43;;;0.13;;
70558;SDS011;58108;48.094;11.838;2023-02-03T08:27:31;3.37;;;0.40;;
70558;SDS011;58108;48.094;11.838;2023-02-03T08:29:56;3.05;;;0.40;;
70558;SDS011;58108;48.094;11.838;2023-02-03T08:32:22;1.40;;;0.13;;
70558;SDS011;58108;48.094;11.838;2023-02-03T08:34:47;1.70;;;0.17;;
70558;SDS011;58108;48.094;11.838;2023-02-03T08:37:14;3.10;;;0.43;;
70558;SDS011;58108;48.094;11.838;2023-02-03T08:39:39;3.08;;;0.40;;
70558;SDS011;58108;48.094;11.838;2023-02-03T08:42:05;2.47;;;0.20;;
70558;SDS011;58108;48.094;11.838;2023-02-03T08:44:30;1.20;;;0.10;;
70558;SDS011;58108;48.094;11.838;2023-02-03T08:46:56;1.77;;;0.20;;
70558;SDS011;58108;48.094;11.838;2023-02-03T08:49:21;1.47;;;0.30;;
70558;SDS011;58108;48.094;11.838;2023-02-03T08:51:47;2.70;;;0.30;;
70558;SDS011;58108;48.094;11.838;2023-02-03T08:54:13;1.63;;;0.30;;
70558;SDS011;58108;48.094;11.838;2023-02-03T08:56:38;1.80;;;0.30;;
70558;SDS011;58108;48.094;11.838;2023-02-03T08:59:03;1.67;;;0.10;;
70558;SDS011;58108;48.094;11.838;2023-02-03T09:01:29;2.80;;;0.30;;
70558;SDS011;58108;48.094;11.838;2023-02-03T09:03:54;1.10;;;0.10;;
70558;SDS011;58108;48.094;11.838;2023-02-03T09:06:19;1.13;;;0.10;;
70558;SDS011;58108;48.094;11.838;2023-02-03T09:08:46;0.90;;;0.10;;
70558;SDS011;58108;48.094;11.838;2023-02-03T09:11:13;2.27;;;0.30;;
70558;SDS011;58108;48.094;11.838;2023-02-03T09:13:39;1.27;;;0.10;;
70558;SDS011;58108;48.094;11.838;2023-02-03T09:16:05;2.22;;;0.20;;
70558;SDS011;58108;48.094;11.838;2023-02-03T09:18:30;1.33;;;0.30;;
70558;SDS011;58108;48.094;11.838;2023-02-03T09:20:59;2.03;;;0.10;;
70558;SDS011;58108;48.094;11.838;2023-02-03T09:23:25;1.20;;;0.20;;
70558;SDS011;58108;48.094;11.838;2023-02-03T09:25:50;1.33;;;0.20;;
70558;SDS011;58108;48.094;11.838;2023-02-03T09:28:15;2.67;;;0.30;;
70558;SDS011;58108;48.094;11.838;2023-02-03T09:30:40;1.63;;;0.10;;
70558;SDS011;58108;48.094;11.838;2023-02-03T09:33:05;1.73;;;0.10;;
70558;SDS011;58108;48.094;11.838;2023-02-03T09:35:31;1.17;;;0.13;;
70558;SDS011;58108;48.094;11.838;2023-02-03T09:37:57;1.17;;;0.13;;
70558;SDS011;58108;48.094;11.838;2023-02-03T09:40:23;0.73;;;0.00;;
70558;SDS011;58108;48.094;11.838;2023-02-03T09:45:27;1.27;;;0.20;;
70558;SDS011;58108;48.094;11.838;2023-02-03T09:47:53;1.73;;;0.10;;
70558;SDS011;58108;48.094;11.838;2023-02-03T09:50:21;3.38;;;0.30;;
70558;SDS011;58108;48.094;11.838;2023-02-03T09:52:47;3.27;;;0.33;;
70558;SDS011;58108;48.094;11.838;2023-02-03T09:57:40;0.90;;;0.10;;
70558;SDS011;58108;48.094;11.838;2023-02-03T10:00:13;3.97;;;0.38;;
70558;SDS011;58108;48.094;11.838;2023-02-03T10:03:00;1.30;;;0.10;;
70558;SDS011;58108;48.094;11.838;2023-02-03T10:08:24;1.43;;;0.10;;
70558;SDS011;58108;48.094;11.838;2023-02-03T10:13:35;2.15;;;0.30;;
70558;SDS011;58108;48.094;11.838;2023-02-03T10:18:35;2.17;;;0.30;;
70558;SDS011;58108;48.094;11.838;2023-02-03T10:21:03;2.47;;;0.20;;
70558;SDS011;58108;48.094;11.838;2023-02-03T10:23:38;2.20;;;0.10;;
70558;SDS011;58108;48.094;11.838;2023-02-03T10:26:05;1.70;;;0.10;;
70558;SDS011;58108;48.094;11.838;2023-02-03T10:28:33;2.33;;;0.20;;
70558;SDS011;58108;48.094;11.838;2023-02-03T10:31:01;4.45;;;0.20;;
70558;SDS011;58108;48.094;11.838;2023-02-03T10:33:32;2.30;;;0.13;;
70558;SDS011;58108;48.094;11.838;2023-02-03T10:41:15;2.08;;;0.20;;
70558;SDS011;58108;48.094;11.838;2023-02-03T10:43:40;3.10;;;0.30;;
70558;SDS011;58108;48.094;11.838;2023-02-03T10:46:12;2.20;;;0.20;;
70558;SDS011;58108;48.094;11.838;2023-02-03T10:48:38;5.20;;;0.20;;
70558;SDS011;58108;48.094;11.838;2023-02-03T10:51:03;1.87;;;0.20;;
70558;SDS011;58108;48.094;11.838;2023-02-03T10:53:32;1.15;;;0.20;;
70558;SDS011;58108;48.094;11.838;2023-02-03T10:55:59;2.08;;;0.20;;
70558;SDS011;58108;48.094;11.838;2023-02-03T10:58:26;1.45;;;0.10;;
70558;SDS011;58108;48.094;11.838;2023-02-03T11:01:03;1.65;;;0.20;;
70558;SDS011;58108;48.094;11.838;2023-02-03T11:03:29;2.53;;;0.20;;
70558;SDS011;58108;48.094;11.838;2023-02-03T11:06:02;1.67;;;0.20;;
70558;SDS011;58108;48.094;11.838;2023-02-03T11:08:30;2.17;;;0.20;;
70558;SDS011;58108;48.094;11.838;2023-02-03T11:11:09;1.13;;;0.20;;
70558;SDS011;58108;48.094;11.838;2023-02-03T11:13:37;1.70;;;0.10;;
70558;SDS011;58108;48.094;11.838;2023-02-03T11:16:07;1.90;;;0.30;;
70558;SDS011;58108;48.094;11.838;2023-02-03T11:18:43;1.42;;;0.20;;
70558;SDS011;58108;48.094;11.838;2023-02-03T11:23:36;1.93;;;0.20;;
70558;SDS011;58108;48.094;11.838;2023-02-03T11:26:11;2.47;;;0.20;;
70558;SDS011;58108;48.094;11.838;2023-02-03T11:28:40;1.30;;;0.10;;
70558;SDS011;58108;48.094;11.838;2023-02-03T11:31:08;2.75;;;0.10;;
70558;SDS011;58108;48.094;11.838;2023-02-03T11:33:39;1.15;;;0.10;;
70558;SDS011;58108;48.094;11.838;2023-02-03T11:36:04;2.10;;;0.30;;
70558;SDS011;58108;48.094;11.838;2023-02-03T11:38:31;2.70;;;0.23;;
70558;SDS011;58108;48.094;11.838;2023-02-03T11:40:59;2.20;;;0.10;;
70558;SDS011;58108;48.094;11.838;2023-02-03T11:43:25;1.13;;;0.10;;
70558;SDS011;58108;48.094;11.838;2023-02-03T11:45:51;1.10;;;0.13;;
70558;SDS011;58108;48.094;11.838;2023-02-03T11:48:25;1.90;;;0.10;;
70558;SDS011;58108;48.094;11.838;2023-02-03T11:53:44;1.00;;;0.10;;
70558;SDS011;58108;48.094;11.838;2023-02-03T11:56:16;1.55;;;0.20;;
70558;SDS011;58108;48.094;11.838;2023-02-03T12:09:07;1.40;;;0.20;;
70558;SDS011;58108;48.094;11.838;2023-02-03T12:11:42;1.02;;;0.00;;
70558;SDS011;58108;48.094;11.838;2023-02-03T12:16:57;1.50;;;0.13;;
70558;SDS011;58108;48.094;11.838;2023-02-03T12:19:31;2.05;;;0.40;;
70558;SDS011;58108;48.094;11.838;2023-02-03T12:22:07;1.42;;;0.20;;
70558;SDS011;58108;48.094;11.838;2023-02-03T12:24:48;1.23;;;0.10;;
70558;SDS011;58108;48.094;11.838;2023-02-03T12:27:21;1.40;;;0.13;;
70558;SDS011;58108;48.094;11.838;2023-02-03T12:29:52;1.50;;;0.10;;
70558;SDS011;58108;48.094;11.838;2023-02-03T12:40:49;2.13;;;0.20;;
70558;SDS011;58108;48.094;11.838;2023-02-03T12:45:41;2.25;;;0.30;;
70558;SDS011;58108;48.094;11.838;2023-02-03T12:48:09;1.08;;;0.10;;
70558;SDS011;58108;48.094;11.838;2023-02-03T12:50:47;0.80;;;0.10;;
70558;SDS011;58108;48.094;11.838;2023-02-03T12:53:22;1.10;;;0.00;;
70558;SDS011;58108;48.094;11.838;2023-02-03T12:55:55;0.80;;;0.10;;
70558;SDS011;58108;48.094;11.838;2023-02-03T12:58:35;1.10;;;0.03;;
70558;SDS011;58108;48.094;11.838;2023-02-03T13:06:15;0.80;;;0.00;;
70558;SDS011;58108;48.094;11.838;2023-02-03T13:13:48;1.05;;;0.10;;
70558;SDS011;58108;48.094;11.838;2023-02-03T13:16:14;0.63;;;0.10;;
70558;SDS011;58108;48.094;11.838;2023-02-03T13:18:41;0.90;;;0.10;;
70558;SDS011;58108;48.094;11.838;2023-02-03T13:21:10;1.50;;;0.10;;
70558;SDS011;58108;48.094;11.838;2023-02-03T13:23:36;1.17;;;0.10;;
70558;SDS011;58108;48.094;11.838;2023-02-03T13:38:58;2.75;;;0.22;;
70558;SDS011;58108;48.094;11.838;2023-02-03T13:41:41;1.45;;;0.25;;
70558;SDS011;58108;48.094;11.838;2023-02-03T13:44:10;2.30;;;0.10;;
70558;SDS011;58108;48.094;11.838;2023-02-03T13:46:36;2.00;;;0.20;;
70558;SDS011;58108;48.094;11.838;2023-02-03T13:49:03;1.25;;;0.20;;
70558;SDS011;58108;48.094;11.838;2023-02-03T13:51:30;1.55;;;0.20;;
70558;SDS011;58108;48.094;11.838;2023-02-03T13:54:05;1.25;;;0.10;;
70558;SDS011;58108;48.094;11.838;2023-02-03T13:56:31;1.20;;;0.10;;
70558;SDS011;58108;48.094;11.838;2023-02-03T14:01:33;1.77;;;0.20;;
70558;SDS011;58108;48.094;11.838;2023-02-03T14:04:04;1.52;;;0.20;;
70558;SDS011;58108;48.094;11.838;2023-02-03T14:09:01;2.80;;;0.10;;
70558;SDS011;58108;48.094;11.838;2023-02-03T14:16:38;1.48;;;0.10;;
70558;SDS011;58108;48.094;11.838;2023-02-03T14:19:10;1.30;;;0.10;;
70558;SDS011;58108;48.094;11.838;2023-02-03T14:21:37;1.15;;;0.10;;
70558;SDS011;58108;48.094;11.838;2023-02-03T14:24:06;1.27;;;0.10;;
70558;SDS011;58108;48.094;11.838;2023-02-03T14:26:39;1.58;;;0.10;;
70558;SDS011;58108;48.094;11.838;2023-02-03T14:29:07;1.20;;;0.10;;
70558;SDS011;58108;48.094;11.838;2023-02-03T14:31:50;1.30;;;0.00;;
70558;SDS011;58108;48.094;11.838;2023-02-03T14:34:15;1.52;;;0.10;;
70558;SDS011;58108;48.094;11.838;2023-02-03T14:36:42;1.50;;;0.17;;
70558;SDS011;58108;48.094;11.838;2023-02-03T14:46:42;2.73;;;0.20;;
70558;SDS011;58108;48.094;11.838;2023-02-03T14:57:09;1.60;;;0.10;;
70558;SDS011;58108;48.094;11.838;2023-02-03T14:59:49;1.20;;;0.20;;
70558;SDS011;58108;48.094;11.838;2023-02-03T15:02:22;1.55;;;0.20;;
70558;SDS011;58108;48.094;11.838;2023-02-03T15:04:50;1.17;;;0.05;;
70558;SDS011;58108;48.094;11.838;2023-02-03T15:09:59;1.48;;;0.20;;
70558;SDS011;58108;48.094;11.838;2023-02-03T15:12:25;1.83;;;0.17;;
70558;SDS011;58108;48.094;11.838;2023-02-03T15:14:51;3.27;;;0.30;;
70558;SDS011;58108;48.094;11.838;2023-02-03T15:17:25;2.67;;;0.28;;
70558;SDS011;58108;48.094;11.838;2023-02-03T15:19:51;2.55;;;0.10;;
70558;SDS011;58108;48.094;11.838;2023-02-03T15:22:17;1.93;;;0.20;;
70558;SDS011;58108;48.094;11.838;2023-02-03T15:24:43;1.42;;;0.10;;
70558;SDS011;58108;48.094;11.838;2023-02-03T15:27:18;2.47;;;0.20;;
70558;SDS011;58108;48.094;11.838;2023-02-03T15:29:44;2.40;;;0.20;;
70558;SDS011;58108;48.094;11.838;2023-02-03T15:32:44;2.33;;;0.40;;
70558;SDS011;58108;48.094;11.838;2023-02-03T15:35:02;2.50;;;0.30;;
70558;SDS011;58108;48.094;11.838;2023-02-03T15:40:11;1.45;;;0.15;;
70558;SDS011;58108;48.094;11.838;2023-02-03T15:45:07;1.38;;;0.15;;
70558;SDS011;58108;48.094;11.838;2023-02-03T15:47:40;2.08;;;0.25;;
70558;SDS011;58108;48.094;11.838;2023-02-03T15:50:17;2.63;;;0.40;;
70558;SDS011;58108;48.094;11.838;2023-02-03T15:52:47;2.08;;;0.30;;
70558;SDS011;58108;48.094;11.838;2023-02-03T15:55:18;1.40;;;0.15;;
70558;SDS011;58108;48.094;11.838;2023-02-03T15:57:44;2.17;;;0.13;;
70558;SDS011;58108;48.094;11.838;2023-02-03T16:00:34;1.58;;;0.30;;
70558;SDS011;58108;48.094;11.838;2023-02-03T16:03:02;1.43;;;0.20;;
70558;SDS011;58108;48.094;11.838;2023-02-03T16:05:30;1.58;;;0.10;;
70558;SDS011;58108;48.094;11.838;2023-02-03T16:07:56;1.17;;;0.20;;
70558;SDS011;58108;48.094;11.838;2023-02-03T16:12:50;1.88;;;0.30;;
70558;SDS011;58108;48.094;11.838;2023-02-03T16:15:22;1.60;;;0.20;;
70558;SDS011;58108;48.094;11.838;2023-02-03T16:17:52;3.30;;;0.40;;
70558;SDS011;58108;48.094;11.838;2023-02-03T16:20:25;2.93;;;0.50;;
70558;SDS011;58108;48.094;11.838;2023-02-03T16:23:03;1.80;;;0.20;;
70558;SDS011;58108;48.094;11.838;2023-02-03T16:25:29;2.38;;;0.30;;
70558;SDS011;58108;48.094;11.838;2023-02-03T16:27:55;1.45;;;0.20;;
70558;SDS011;58108;48.094;11.838;2023-02-03T16:30:50;2.72;;;0.32;;
70558;SDS011;58108;48.094;11.838;2023-02-03T16:33:34;2.20;;;0.37;;
70558;SDS011;58108;48.094;11.838;2023-02-03T16:36:19;2.25;;;0.55;;
70558;SDS011;58108;48.094;11.838;2023-02-03T16:39:05;3.30;;;0.32;;
70558;SDS011;58108;48.094;11.838;2023-02-03T16:41:54;1.92;;;0.45;;
70558;SDS011;58108;48.094;11.838;2023-02-03T16:44:39;4.43;;;0.47;;
70558;SDS011;58108;48.094;11.838;2023-02-03T16:47:24;4.03;;;0.40;;